Latest Weather Observations for Telfer

IDW60801

Issued at 8:33 am WST Tuesday 25 April 2017 (issued every 30 minutes, with the page automatically refreshed every 10 minutes)

About weather observations | Map of weather stations | Latest weather observations for WA | Other Formats
Station Details ID: 013030 Name: TELFER AERO Lat: -21.71 Lon: 122.23 Height: 291.9 m
Data from the previous 72 hours. | See also: Recent months at Telfer
Date/Time
WST
Temp
°C
App
Temp
°C
Dew
Point
°C
Rel
Hum
%
Delta-T
°C
Wind Press
QNH
hPa
Press
MSL
hPa
Rain since
9am
mm
Dir  Spd
km/h
Gust
km/h
Spd
kts
Gust
kts
25/08:30am 25.8 21.8 16.1 55 6.0 SE 32 39 17 21 1017.1 1015.2 0.0
25/08:00am 25.0 21.0 16.2 58 5.4 SE 32 37 17 20 1017.0 1015.1 0.0
25/07:30am 24.2 20.5 15.9 59 5.1 SE 30 39 16 21 1016.8 1014.9 0.0
25/07:00am 23.2 20.8 16.3 65 4.2 SE 24 33 13 18 1016.4 1014.6 0.0
25/06:30am 22.5 20.1 16.3 68 3.8 SSE 24 32 13 17 1016.1 1014.3 0.0
25/06:00am 22.4 20.9 16.7 70 3.5 SSE 20 28 11 15 1015.9 1014.1 0.0
25/05:30am 22.6 20.5 16.2 67 3.9 SSE 22 28 12 15 1015.4 1013.6 0.0
25/05:00am 22.4 20.9 16.4 69 3.7 SE 19 24 10 13 1015.2 1013.4 0.0
25/04:30am 22.9 20.9 16.4 67 4.0 SSE 22 26 12 14 1015.0 1013.2 0.0
25/04:00am 23.0 22.1 16.8 68 3.8 SSE 17 20 9 11 1014.8 1012.9 0.0
25/03:30am 22.8 22.8 17.3 71 3.4 SE 13 20 7 11 1014.6 1012.7 0.0
25/03:00am 22.5 23.1 17.6 74 3.1 SE 11 15 6 8 1014.5 1012.6 0.0
25/02:30am 22.6 22.8 17.7 74 3.1 ESE 13 17 7 9 1014.6 1012.7 0.0
25/02:00am 23.0 22.5 17.7 72 3.3 SE 17 20 9 11 1014.6 1012.7 0.0
25/01:30am 23.2 22.4 17.2 69 3.7 SE 17 22 9 12 1014.7 1012.8 0.0
25/01:00am 23.6 22.9 17.3 67 3.9 SE 17 22 9 12 1014.9 1013.1 0.0
25/12:30am 23.7 22.6 17.2 67 4.1 SE 19 22 10 12 1014.9 1013.1 0.0
25/12:00am 24.1 22.7 16.9 64 4.5 SE 20 24 11 13 1014.9 1013.1 0.0
 
Date/Time
WST
Temp
°C
App
Temp
°C
Dew
Point
°C
Rel
Hum
%
Delta-T
°C
Wind Press
QNH
hPa
Press
MSL
hPa
Rain since
9am
mm
Dir  Spd
km/h
Gust
km/h
Spd
kts
Gust
kts
24/11:30pm 24.5 22.7 17.0 63 4.7 SE 22 28 12 15 1014.9 1013.1 0.0
24/11:00pm 25.4 23.2 16.8 59 5.4 SSE 24 35 13 19 1015.0 1013.2 0.0
24/10:30pm 27.0 24.3 16.6 53 6.5 SSE 26 32 14 17 1014.9 1013.1 0.0
24/10:00pm 26.6 28.1 17.7 58 5.7 ESE 6 7 3 4 1014.8 1012.9 0.0
24/09:30pm 27.8 29.4 17.0 51 6.8 S 4 7 2 4 1014.7 1012.8 0.0
24/09:00pm 28.8 29.7 16.0 45 8.0 SSE 6 7 3 4 1014.7 1012.8 0.0
24/08:30pm 29.3 31.3 16.1 44 8.3 CALM 0 0 0 0 1014.6 1012.7 0.0
24/08:00pm 29.0 31.0 16.9 48 7.7 SE 2 6 1 3 1014.4 1012.5 0.0
24/07:30pm 29.1 30.4 17.0 48 7.7 SE 6 7 3 4 1014.2 1012.3 0.0
24/07:00pm 29.3 30.2 16.1 44 8.3 ENE 6 7 3 4 1013.8 1011.9 0.0
24/06:30pm 29.5 30.6 16.7 46 8.1 E 6 9 3 5 1013.6 1011.7 0.0
24/06:00pm 31.5 33.0 14.6 36 10.5 CALM 0 6 0 3 1013.5 1011.6 0.0
24/05:30pm 32.1 31.8 14.3 34 11.0 WSW 9 15 5 8 1012.9 1011.1 0.0
24/05:00pm 33.0 32.8 14.6 33 11.4 W 9 15 5 8 1012.6 1010.8 0.0
24/04:30pm 33.2 32.9 14.3 32 11.7 W 9 15 5 8 1012.4 1010.6 0.0
24/04:00pm 33.7 32.7 14.7 32 11.9 W 13 19 7 10 1012.3 1010.5 0.0
24/03:30pm 33.7 33.3 14.2 30 12.1 W 9 17 5 9 1012.2 1010.4 0.0
24/03:00pm 33.6 32.4 14.1 30 12.1 WNW 13 17 7 9 1012.3 1010.5 0.0
24/02:30pm 33.3 33.0 14.4 32 11.7 SW 9 22 5 12 1012.5 1010.7 0.0
24/02:00pm 33.4 33.1 14.5 32 11.8 S 9 17 5 9 1012.8 1011.0 0.0
24/01:30pm 32.8 32.0 13.9 31 11.6 SSW 11 20 6 11 1012.9 1011.1 0.0
24/01:00pm 32.8 32.5 14.4 33 11.4 WNW 9 15 5 8 1013.3 1011.4 0.0
24/12:30pm 32.0 31.2 15.1 36 10.5 S 13 17 7 9 1013.7 1011.8 0.0
24/12:00pm 31.5 31.5 16.3 40 9.6 SSE 11 17 6 9 1014.2 1012.3 0.0
24/11:30am 30.2 30.1 15.9 42 9.0 SSE 11 17 6 9 1014.8 1012.9 0.0
24/11:00am 30.2 29.9 15.5 41 9.2 SSE 11 19 6 10 1015.4 1013.6 0.0
24/10:30am 28.7 28.3 16.3 47 7.8 ESE 13 19 7 10 1016.0 1014.2 0.0
24/10:00am 27.7 26.7 15.7 48 7.4 E 15 19 8 10 1016.3 1014.5 0.0
24/09:30am 27.4 26.8 16.7 52 6.7 E 15 20 8 11 1016.8 1014.9 0.0
24/09:00am 25.6 24.9 16.5 57 5.7 E 15 19 8 10 1017.0 1015.1 0.0
24/08:30am 25.0 23.7 16.7 60 5.2 E 19 24 10 13 1016.8 1014.9 0.0
24/08:00am 24.0 22.5 16.8 64 4.5 E 20 26 11 14 1016.5 1014.7 0.0
24/07:30am 23.9 22.8 17.4 67 4.1 ESE 19 22 10 12 1016.8 1014.9 0.0
24/07:00am 23.6 22.3 17.3 67 3.9 ESE 20 26 11 14 1016.5 1014.7 0.0
24/06:30am 23.4 21.8 17.4 69 3.8 SE 22 30 12 16 1016.1 1014.3 0.0
24/06:00am 23.4 21.8 17.4 69 3.8 SSE 22 32 12 17 1015.8 1014.0 0.0
24/05:30am 23.4 20.3 17.4 69 3.8 SSE 30 37 16 20 1015.4 1013.6 0.0
24/05:00am 23.8 20.6 17.3 67 4.1 SSE 30 41 16 22 1015.1 1013.3 0.0
24/04:30am 23.8 21.8 17.5 68 4.0 S 24 32 13 17 1015.3 1013.5 0.0
24/04:00am 23.8 22.6 17.5 68 4.0 S 20 30 11 16 1014.9 1013.1 0.0
24/03:30am 23.9 22.2 17.2 66 4.2 S 22 33 12 18 1014.9 1013.1 0.0
24/03:00am 24.3 22.9 17.1 64 4.5 S 20 26 11 14 1014.8 1012.9 0.0
24/02:30am 24.6 22.7 16.6 61 5.0 SSE 22 28 12 15 1014.6 1012.7 0.0
24/02:00am 24.6 23.1 16.8 62 4.9 S 20 26 11 14 1014.5 1012.6 0.0
24/01:30am 25.1 23.6 16.8 60 5.2 S 20 26 11 14 1014.6 1012.7 0.0
24/01:00am 25.2 23.8 16.6 59 5.4 S 19 28 10 15 1014.8 1012.9 0.0
24/12:30am 26.3 24.9 14.4 48 7.2 SSW 15 22 8 12 1014.6 1012.7 0.0
24/12:00am 26.3 26.2 13.4 45 7.7 S 6 9 3 5 1014.6 1012.7 0.0
 
Date/Time
WST
Temp
°C
App
Temp
°C
Dew
Point
°C
Rel
Hum
%
Delta-T
°C
Wind Press
QNH
hPa
Press
MSL
hPa
Rain since
9am
mm
Dir  Spd
km/h
Gust
km/h
Spd
kts
Gust
kts
23/11:30pm 25.6 25.4 14.7 51 6.6 SSE 9 9 5 5 1014.7 1012.8 0.0
23/11:00pm 25.2 26.0 16.4 58 5.5 SE 7 9 4 5 1014.7 1012.8 0.0
23/10:30pm 25.9 26.3 15.3 52 6.5 SE 7 9 4 5 1014.8 1012.9 0.0
23/10:00pm 25.8 25.5 15.5 53 6.3 SE 11 11 6 6 1015.1 1013.3 0.0
23/09:30pm 25.2 26.0 17.4 62 4.9 ESE 9 11 5 6 1015.2 1013.4 0.0
23/09:00pm 26.3 26.5 15.7 52 6.5 ESE 9 13 5 7 1015.2 1013.4 0.0
23/08:30pm 26.3 26.1 15.7 52 6.5 ESE 11 13 6 7 1015.2 1013.4 0.0
23/08:00pm 26.2 26.2 16.2 54 6.2 ESE 11 13 6 7 1014.9 1013.1 0.0
23/07:30pm 27.3 27.5 15.7 49 7.2 ESE 9 11 5 6 1014.5 1012.6 0.0
23/07:00pm 29.2 28.5 14.2 40 9.1 SE 11 13 6 7 1014.3 1012.4 0.0
23/06:30pm 30.2 29.1 13.0 34 10.3 SSE 11 13 6 7 1014.0 1012.1 0.0
23/06:00pm 30.4 29.7 13.2 35 10.4 SSE 9 11 5 6 1013.6 1011.7 0.0
23/05:30pm 31.2 30.4 13.0 33 11.0 SSE 9 11 5 6 1013.3 1011.4 0.0
23/05:00pm 32.2 31.2 13.4 32 11.5 SSE 11 13 6 7 1012.8 1011.0 0.0
23/04:30pm 32.4 31.3 13.1 31 11.7 SSE 11 15 6 8 1012.8 1011.0 0.0
23/04:00pm 32.9 31.9 13.5 30 11.9 SE 11 24 6 13 1012.5 1010.7 0.0
23/03:30pm 33.4 32.2 12.9 28 12.4 ESE 11 17 6 9 1012.4 1010.6 0.0
23/03:00pm 33.3 32.3 12.3 28 12.6 SE 9 15 5 8 1012.3 1010.5 0.0
23/02:30pm 33.2 33.2 14.3 32 11.7 ESE 7 15 4 8 1012.5 1010.7 0.0
23/02:00pm 33.2 32.4 12.8 29 12.4 S 9 19 5 10 1012.7 1010.9 0.0
23/01:30pm 33.0 31.9 13.1 30 12.1 SSE 11 17 6 9 1013.0 1011.2 0.0
23/01:00pm 33.0 33.2 14.6 33 11.4 ESE 7 13 4 7 1013.3 1011.4 0.0
23/12:30pm 32.6 31.9 13.3 31 11.8 NE 9 17 5 9 1013.8 1011.9 0.0
23/12:00pm 32.1 30.8 13.8 33 11.2 E 13 20 7 11 1014.4 1012.5 0.0
23/11:30am 31.3 30.2 14.4 35 10.4 ENE 13 20 7 11 1015.1 1013.3 0.0
23/11:00am 31.4 30.3 15.4 38 10.0 E 15 20 8 11 1015.6 1013.8 0.0
23/10:30am 30.4 28.9 15.3 40 9.4 E 17 22 9 12 1016.0 1014.2 0.0
23/10:00am 29.7 28.4 15.8 43 8.7 E 17 24 9 13 1016.5 1014.7 0.0
23/09:30am 28.6 26.9 16.2 47 7.8 ENE 20 26 11 14 1016.8 1014.9 0.0
23/09:00am 27.4 25.8 16.4 51 6.9 ENE 20 28 11 15 1016.8 1014.9 0.0
23/08:30am 26.3 24.8 16.8 56 6.0 E 20 26 11 14 1016.5 1014.7 0.0
23/08:00am 24.8 24.6 18.5 68 4.0 E 17 22 9 12 1016.5 1014.7 0.0
23/07:30am 23.4 23.2 18.5 74 3.1 E 17 20 9 11 1016.4 1014.6 0.0
23/07:00am 22.6 23.6 19.4 82 2.1 ESE 13 17 7 9 1016.2 1014.4 0.0
23/06:30am 21.3 22.7 19.6 90 1.1 E 11 15 6 8 1015.8 1014.0 0.0
23/06:00am 21.1 22.2 19.6 91 1.0 ESE 13 19 7 10 1015.6 1013.8 0.0
23/05:30am 21.3 22.6 19.4 89 1.2 E 11 15 6 8 1015.3 1013.5 0.0
23/05:00am 21.9 22.4 19.3 85 1.7 ESE 15 19 8 10 1015.0 1013.2 0.0
23/04:30am 21.8 22.8 19.5 87 1.5 ESE 13 15 7 8 1015.0 1013.2 0.0
23/04:00am 22.1 22.8 19.6 86 1.6 ESE 15 17 8 9 1015.0 1013.2 0.0
23/03:30am 22.7 23.0 19.5 82 2.1 ESE 17 19 9 10 1015.0 1013.2 0.0
23/03:00am 23.3 24.3 19.5 79 2.5 ESE 13 17 7 9 1015.0 1013.2 0.0
23/02:30am 23.5 25.0 19.8 80 2.4 ESE 11 15 6 8 1014.9 1013.1 0.0
23/02:00am 24.0 25.8 19.5 76 2.9 E 9 13 5 7 1014.8 1012.9 0.0
23/01:30am 24.2 26.8 20.1 78 2.7 ENE 6 7 3 4 1014.9 1013.1 0.0
23/01:00am 24.4 26.5 20.1 77 2.8 E 9 13 5 7 1015.0 1013.2 0.0
23/12:30am 24.6 26.7 20.1 76 3.0 E 9 11 5 6 1015.2 1013.4 0.0
23/12:00am 24.6 26.6 19.9 75 3.1 SE 9 11 5 6 1015.2 1013.4 0.0
 
Date/Time
WST
Temp
°C
App
Temp
°C
Dew
Point
°C
Rel
Hum
%
Delta-T
°C
Wind Press
QNH
hPa
Press
MSL
hPa
Rain since
9am
mm
Dir  Spd
km/h
Gust
km/h
Spd
kts
Gust
kts
22/11:30pm 24.4 26.3 19.7 75 3.1 ESE 9 11 5 6 1015.3 1013.5 0.0
22/11:00pm 24.8 27.0 19.6 73 3.4 SE 7 9 4 5 1015.4 1013.6 0.0
22/10:30pm 25.0 26.7 19.4 71 3.6 SE 9 11 5 6 1015.6 1013.8 0.0
22/10:00pm 25.4 27.5 19.3 69 4.0 SE 7 7 4 4 1015.7 1013.9 0.0
22/09:30pm 25.2 27.4 19.6 71 3.7 ESE 7 9 4 5 1015.8 1014.0 0.0
22/09:00pm 25.7 27.4 19.3 67 4.2 SE 9 11 5 6 1015.9 1014.1 0.0
22/08:30pm 25.9 27.5 19.1 66 4.4 ESE 9 9 5 5 1015.9 1014.1 0.0
22/08:00pm 26.4 28.3 19.0 63 4.8 ESE 7 9 4 5 1015.8 1014.0 0.0
22/07:30pm 26.5 28.6 19.4 65 4.6 E 7 9 4 5 1015.5 1013.7 0.0
22/07:00pm 27.1 28.4 19.4 62 5.0 ESE 11 13 6 7 1015.2 1013.4 0.0
22/06:30pm 27.7 29.6 19.8 62 5.2 SE 9 11 5 6 1015.0 1013.2 0.0
22/06:00pm 28.6 30.4 19.5 58 6.0 SE 9 11 5 6 1014.5 1012.6 0.0
22/05:30pm 29.3 30.3 18.7 52 6.9 ESE 11 15 6 8 1014.2 1012.3 0.0
22/05:00pm 30.9 30.8 16.9 43 8.9 ESE 13 17 7 9 1013.9 1012.0 0.0
22/04:30pm 31.5 31.6 17.4 43 9.1 ESE 13 19 7 10 1013.6 1011.7 0.0
22/04:00pm 31.2 31.0 17.5 44 8.8 SE 15 22 8 12 1013.5 1011.6 0.0
22/03:30pm 31.7 31.4 18.3 45 8.7 SE 17 20 9 11 1013.3 1011.4 0.0
22/03:00pm 32.2 33.4 19.1 45 8.7 SE 11 17 6 9 1013.4 1011.5 0.0
22/02:30pm 32.2 33.8 19.1 45 8.7 E 9 19 5 10 1013.7 1011.8 0.0
22/02:00pm 31.7 33.2 19.0 47 8.4 E 9 15 5 8 1014.0 1012.1 0.0
22/01:30pm 31.7 33.2 19.0 47 8.4 ENE 9 19 5 10 1014.1 1012.2 0.0
22/01:00pm 31.3 33.4 19.0 48 8.1 E 6 15 3 8 1014.3 1012.4 0.0
22/12:30pm 30.8 31.8 19.5 51 7.5 E 13 19 7 10 1014.7 1012.8 0.0
22/12:00pm 30.0 31.2 20.0 55 6.6 ENE 13 19 7 10 1015.1 1013.3 0.0
22/11:30am 29.5 31.4 19.8 56 6.4 E 9 17 5 9 1015.7 1013.9 0.0
22/11:00am 28.9 30.3 19.5 57 6.2 ESE 11 15 6 8 1016.4 1014.6 0.0
22/10:30am 28.3 29.6 20.1 61 5.4 SE 13 19 7 10 1017.0 1015.1 0.0
22/10:00am 27.7 28.6 19.2 60 5.5 ESE 13 17 7 9 1017.3 1015.4 0.0
22/09:30am 27.1 27.7 20.2 66 4.6 ESE 17 20 9 11 1017.5 1015.6 0.0
22/09:00am 26.1 26.3 20.2 70 3.9 ESE 19 24 10 13 1017.6 1015.7 0.6

Other Formats:

Comma delimited format used in spreadsheet applications
http://www.bom.gov.au/fwo/IDW60801/IDW60801.94319.axf

JavaScript Object Notation format (JSON) in row-major order
http://www.bom.gov.au/fwo/IDW60801/IDW60801.94319.json